createdAt,value
2018-07-27T00:01:34.975Z,6.53
2018-07-27T00:04:02.535Z,6.80
2018-07-27T00:06:29.982Z,6.93
2018-07-27T00:08:57.598Z,6.77
2018-07-27T00:11:25.089Z,6.43
2018-07-27T00:13:52.563Z,5.87
2018-07-27T00:16:20.110Z,5.57
2018-07-27T00:18:47.593Z,6.80
2018-07-27T00:21:15.154Z,6.50
2018-07-27T00:23:42.612Z,6.07
2018-07-27T00:26:10.138Z,5.90
2018-07-27T00:28:37.608Z,6.60
2018-07-27T00:31:06.190Z,6.57
2018-07-27T00:33:33.724Z,6.33
2018-07-27T00:36:01.230Z,6.50
2018-07-27T00:38:28.761Z,6.30
2018-07-27T00:40:56.216Z,6.37
2018-07-27T00:43:23.776Z,7.37
2018-07-27T00:45:51.216Z,6.67
2018-07-27T00:48:18.722Z,6.37
2018-07-27T00:50:46.233Z,6.40
2018-07-27T00:53:13.832Z,7.70
2018-07-27T00:55:41.517Z,6.47
2018-07-27T00:58:09.003Z,6.83
2018-07-27T01:00:36.499Z,6.30
2018-07-27T01:03:03.920Z,6.70
2018-07-27T01:05:31.412Z,6.80
2018-07-27T01:07:58.955Z,6.70
2018-07-27T01:10:26.624Z,6.53
2018-07-27T01:12:54.022Z,6.53
2018-07-27T01:15:21.546Z,6.10
2018-07-27T01:17:49.022Z,6.00
2018-07-27T01:20:16.544Z,6.20
2018-07-27T01:22:44.054Z,6.60
2018-07-27T01:25:11.533Z,6.20
2018-07-27T01:27:39.001Z,6.47
2018-07-27T01:30:06.965Z,6.17
2018-07-27T01:32:34.510Z,6.70
2018-07-27T01:35:02.166Z,5.70
2018-07-27T01:37:30.183Z,6.67
2018-07-27T01:39:57.598Z,6.03
2018-07-27T01:42:25.085Z,5.77
2018-07-27T01:44:52.578Z,6.40
2018-07-27T01:47:20.043Z,6.63
2018-07-27T01:49:47.567Z,5.97
2018-07-27T01:52:15.085Z,6.60
2018-07-27T01:54:42.586Z,6.77
2018-07-27T01:57:10.126Z,7.13
2018-07-27T01:59:37.526Z,6.70
2018-07-27T02:02:05.184Z,7.40
2018-07-27T02:04:32.637Z,7.70
2018-07-27T02:07:00.165Z,6.87
2018-07-27T02:09:27.700Z,6.80
2018-07-27T02:11:56.262Z,7.30
2018-07-27T02:14:23.733Z,7.83
2018-07-27T02:16:51.271Z,6.70
2018-07-27T02:19:18.835Z,7.10
2018-07-27T02:21:46.525Z,6.87
2018-07-27T02:24:14.148Z,6.07
2018-07-27T02:26:41.646Z,6.60
2018-07-27T02:29:09.148Z,6.20
2018-07-27T02:31:36.651Z,6.83
2018-07-27T02:34:04.259Z,6.73
2018-07-27T02:36:31.858Z,6.67
2018-07-27T02:38:59.406Z,6.23
2018-07-27T02:41:26.987Z,6.60
2018-07-27T02:43:54.535Z,6.40
2018-07-27T02:46:22.045Z,6.30
2018-07-27T02:48:49.543Z,6.60
2018-07-27T02:51:17.202Z,6.63
2018-07-27T02:53:44.664Z,7.40
2018-07-27T02:56:12.099Z,6.30
2018-07-27T02:58:39.574Z,7.17
2018-07-27T03:01:07.094Z,6.93
2018-07-27T03:03:34.703Z,7.43
2018-07-27T03:06:02.215Z,6.90
2018-07-27T03:08:29.720Z,7.20
2018-07-27T03:10:57.316Z,6.87
2018-07-27T03:13:24.838Z,6.60
2018-07-27T03:15:52.328Z,6.93
2018-07-27T03:18:20.028Z,7.00
2018-07-27T03:20:47.578Z,6.50
2018-07-27T03:23:15.096Z,6.73
2018-07-27T03:25:42.505Z,6.77
2018-07-27T03:28:10.014Z,6.40
2018-07-27T03:30:37.458Z,6.90
2018-07-27T03:33:04.890Z,7.10
2018-07-27T03:35:32.388Z,7.50
2018-07-27T03:37:59.916Z,7.67
2018-07-27T03:40:27.382Z,7.17
2018-07-27T03:42:54.832Z,6.47
2018-07-27T03:45:22.301Z,6.73
2018-07-27T03:47:49.787Z,6.97
2018-07-27T03:50:17.283Z,7.10
2018-07-27T03:52:44.770Z,6.60
2018-07-27T03:55:12.235Z,7.83
2018-07-27T03:57:39.668Z,6.87
2018-07-27T04:00:09.502Z,7.80
2018-07-27T04:02:36.960Z,7.00
2018-07-27T04:05:04.644Z,7.40
2018-07-27T04:07:32.093Z,7.00
2018-07-27T04:09:59.710Z,7.13
2018-07-27T04:12:27.293Z,7.03
2018-07-27T04:14:55.070Z,7.70
2018-07-27T04:17:22.608Z,7.20
2018-07-27T04:19:50.855Z,7.40
2018-07-27T04:22:18.867Z,7.30
2018-07-27T04:24:46.346Z,7.33
2018-07-27T04:27:13.889Z,7.20
2018-07-27T04:29:41.380Z,7.13
2018-07-27T04:32:08.911Z,7.17
2018-07-27T04:34:36.384Z,6.90
2018-07-27T04:37:03.897Z,6.80
2018-07-27T04:39:31.360Z,6.77
2018-07-27T04:41:58.794Z,6.70
2018-07-27T04:44:26.231Z,8.83
2018-07-27T04:46:53.703Z,7.83
2018-07-27T04:49:21.185Z,7.97
2018-07-27T04:51:48.595Z,7.50
2018-07-27T04:54:16.127Z,7.70
2018-07-27T04:56:43.647Z,7.47
2018-07-27T04:59:11.190Z,7.60
2018-07-27T05:01:38.709Z,7.80
2018-07-27T05:04:06.213Z,7.00
2018-07-27T05:06:33.706Z,7.30
2018-07-27T05:09:22.102Z,7.57
2018-07-27T05:11:50.177Z,8.13
2018-07-27T05:14:17.712Z,7.17
2018-07-27T05:16:45.276Z,7.03
2018-07-27T05:19:12.752Z,7.63
2018-07-27T05:21:40.410Z,7.87
2018-07-27T05:24:08.020Z,8.83
2018-07-27T05:26:35.671Z,8.10
2018-07-27T05:29:03.264Z,7.90
2018-07-27T05:31:30.812Z,7.50
2018-07-27T05:33:58.521Z,7.80
2018-07-27T05:36:26.033Z,7.90
2018-07-27T05:38:53.577Z,8.13
2018-07-27T05:41:21.102Z,8.03
2018-07-27T05:43:48.597Z,7.77
2018-07-27T05:46:16.872Z,8.00
2018-07-27T05:48:44.415Z,7.53
2018-07-27T05:51:11.991Z,8.37
2018-07-27T05:53:39.551Z,9.27
2018-07-27T05:56:07.166Z,7.60
2018-07-27T05:58:34.721Z,7.53
2018-07-27T06:01:02.301Z,8.10
2018-07-27T06:03:29.888Z,7.40
2018-07-27T06:05:57.406Z,7.70
2018-07-27T06:08:24.870Z,8.73
2018-07-27T06:10:52.593Z,10.10
2018-07-27T06:13:20.898Z,7.70
2018-07-27T06:15:49.262Z,7.60
2018-07-27T06:18:18.291Z,7.57
2018-07-27T06:20:45.882Z,7.70
2018-07-27T06:23:13.405Z,9.20
2018-07-27T06:25:40.984Z,7.60
2018-07-27T06:28:08.558Z,9.00
2018-07-27T06:30:36.201Z,7.80
2018-07-27T06:33:04.044Z,7.63
2018-07-27T06:35:31.645Z,7.67
2018-07-27T06:37:59.206Z,6.90
2018-07-27T06:40:26.768Z,6.50
2018-07-27T06:42:54.283Z,8.40
2018-07-27T06:45:21.911Z,8.47
2018-07-27T06:47:49.335Z,8.77
2018-07-27T06:50:16.779Z,8.40
2018-07-27T06:52:47.079Z,7.47
2018-07-27T06:55:14.698Z,6.67
2018-07-27T06:57:42.186Z,7.97
2018-07-27T07:00:09.714Z,7.83
2018-07-27T07:02:37.200Z,6.27
2018-07-27T07:05:04.952Z,7.63
2018-07-27T07:07:32.485Z,5.73
2018-07-27T07:10:00.030Z,6.23
2018-07-27T07:12:27.594Z,6.37
2018-07-27T07:14:55.131Z,6.53
2018-07-27T07:17:22.621Z,6.23
2018-07-27T07:19:50.172Z,6.70
2018-07-27T07:22:17.652Z,6.20
2018-07-27T07:24:45.225Z,6.33
2018-07-27T07:27:12.759Z,6.40
2018-07-27T07:29:40.316Z,6.80
2018-07-27T07:32:08.697Z,6.77
2018-07-27T07:34:36.237Z,6.70
2018-07-27T07:37:03.792Z,6.97
2018-07-27T07:39:31.339Z,6.30
2018-07-27T07:41:58.930Z,5.90
2018-07-27T07:44:26.468Z,6.30
2018-07-27T07:46:53.961Z,6.03
2018-07-27T07:49:21.426Z,7.87
2018-07-27T07:51:48.916Z,6.30
2018-07-27T07:54:16.460Z,6.27
2018-07-27T07:56:44.029Z,6.23
2018-07-27T07:59:12.210Z,6.33
2018-07-27T08:01:39.792Z,6.10
2018-07-27T08:04:07.428Z,6.50
2018-07-27T08:06:34.961Z,6.77
2018-07-27T08:09:02.663Z,6.47
2018-07-27T08:11:30.184Z,6.40
2018-07-27T08:13:57.665Z,6.47
2018-07-27T08:16:25.216Z,5.67
2018-07-27T08:18:52.782Z,8.37
2018-07-27T08:21:25.257Z,6.07
2018-07-27T08:23:52.933Z,6.27
2018-07-27T08:26:40.343Z,5.70
2018-07-27T08:29:10.153Z,5.60
2018-07-27T08:31:38.425Z,6.17
2018-07-27T08:34:06.135Z,5.97
2018-07-27T08:37:06.093Z,6.47
2018-07-27T08:39:34.975Z,5.57
2018-07-27T08:42:02.536Z,5.80
2018-07-27T08:44:31.953Z,4.80
2018-07-27T08:46:59.535Z,5.50
2018-07-27T08:49:27.056Z,5.53
2018-07-27T08:51:54.663Z,4.83
2018-07-27T08:54:22.240Z,6.03
2018-07-27T08:56:49.748Z,5.67
2018-07-27T08:59:17.279Z,5.30
2018-07-27T09:01:45.001Z,4.67
2018-07-27T09:04:15.363Z,5.90
2018-07-27T09:09:18.113Z,5.07
2018-07-27T09:11:45.826Z,4.50
2018-07-27T09:14:13.536Z,4.10
2018-07-27T09:16:41.101Z,4.53
2018-07-27T09:19:08.602Z,4.60
2018-07-27T09:21:36.211Z,5.23
2018-07-27T09:24:03.951Z,4.20
2018-07-27T09:26:31.451Z,4.17
2018-07-27T09:28:58.957Z,5.20
2018-07-27T09:31:26.531Z,6.30
2018-07-27T09:33:54.182Z,5.50
2018-07-27T09:36:21.706Z,4.00
2018-07-27T09:38:49.237Z,3.97
2018-07-27T09:41:16.812Z,4.53
2018-07-27T09:43:44.279Z,4.40
2018-07-27T09:46:11.714Z,4.20
2018-07-27T09:48:39.198Z,4.23
2018-07-27T09:51:06.677Z,4.50
2018-07-27T09:53:34.166Z,4.53
2018-07-27T09:56:01.668Z,4.00
2018-07-27T09:58:29.116Z,3.90
2018-07-27T10:01:02.196Z,4.20
2018-07-27T10:03:29.714Z,4.33
2018-07-27T10:05:57.282Z,5.57
2018-07-27T10:08:24.774Z,4.93
2018-07-27T10:10:52.255Z,4.73
2018-07-27T10:13:19.766Z,4.33
2018-07-27T10:15:47.225Z,4.80
2018-07-27T10:18:14.774Z,4.80
2018-07-27T10:20:42.268Z,4.20
2018-07-27T10:23:09.787Z,4.47
2018-07-27T10:25:37.316Z,6.10
2018-07-27T10:28:04.879Z,5.23
2018-07-27T10:30:32.355Z,4.97
2018-07-27T10:32:59.840Z,4.90
2018-07-27T10:35:27.359Z,6.10
2018-07-27T10:37:54.876Z,4.40
2018-07-27T10:40:22.377Z,6.43
2018-07-27T10:42:49.919Z,5.80
2018-07-27T10:45:17.454Z,4.60
2018-07-27T10:47:45.393Z,4.63
2018-07-27T10:50:12.964Z,4.70
2018-07-27T10:52:40.471Z,5.17
2018-07-27T10:55:08.017Z,5.73
2018-07-27T10:57:35.490Z,4.67
2018-07-27T11:00:04.771Z,4.77
2018-07-27T11:02:32.332Z,5.03
2018-07-27T11:04:59.845Z,4.60
2018-07-27T11:07:27.381Z,4.40
2018-07-27T11:09:54.980Z,3.90
2018-07-27T11:12:22.387Z,3.97
2018-07-27T11:14:49.953Z,4.60
2018-07-27T11:17:17.500Z,4.47
2018-07-27T11:19:45.020Z,4.60
2018-07-27T11:22:12.560Z,4.70
2018-07-27T11:24:39.985Z,4.60
2018-07-27T11:27:07.511Z,4.63
2018-07-27T11:29:35.057Z,4.37
2018-07-27T11:32:02.609Z,5.30
2018-07-27T11:34:30.175Z,5.87
2018-07-27T11:36:57.673Z,4.40
2018-07-27T11:39:25.501Z,4.63
2018-07-27T11:41:52.968Z,4.67
2018-07-27T11:44:20.528Z,5.30
2018-07-27T11:46:48.023Z,4.10
2018-07-27T11:49:15.587Z,4.87
2018-07-27T11:51:43.326Z,4.70
2018-07-27T11:54:11.058Z,3.93
2018-07-27T11:56:38.600Z,4.63
2018-07-27T11:59:06.168Z,4.57
2018-07-27T12:01:33.699Z,4.07
2018-07-27T12:04:01.279Z,4.00
2018-07-27T12:06:28.808Z,4.27
2018-07-27T12:08:56.235Z,4.83
2018-07-27T12:11:23.776Z,4.30
2018-07-27T12:13:51.332Z,5.00
2018-07-27T12:16:18.792Z,4.13
2018-07-27T12:18:46.514Z,4.03
2018-07-27T12:21:14.266Z,4.17
2018-07-27T12:23:41.721Z,5.10
2018-07-27T12:26:09.326Z,4.77
2018-07-27T12:28:36.822Z,4.67
2018-07-27T12:31:04.334Z,4.40
2018-07-27T12:33:31.831Z,4.53
2018-07-27T12:35:59.421Z,4.97
2018-07-27T12:38:26.956Z,4.73
2018-07-27T12:40:54.515Z,3.70
2018-07-27T12:43:22.115Z,4.53
2018-07-27T12:45:49.717Z,4.17
2018-07-27T12:48:17.261Z,4.40
2018-07-27T12:50:44.797Z,5.17
2018-07-27T12:53:12.315Z,4.30
2018-07-27T12:55:40.293Z,4.83
2018-07-27T12:58:07.775Z,4.00
2018-07-27T13:00:35.317Z,4.27
2018-07-27T13:03:02.866Z,4.23
2018-07-27T13:05:30.388Z,4.33
2018-07-27T13:07:57.907Z,4.27
2018-07-27T13:10:25.462Z,3.97
2018-07-27T13:12:52.907Z,4.27
2018-07-27T13:15:20.484Z,3.53
2018-07-27T13:17:48.039Z,4.40
2018-07-27T13:20:15.637Z,4.43
2018-07-27T13:22:43.221Z,6.00
2018-07-27T13:25:10.758Z,4.40
2018-07-27T13:27:38.255Z,4.47
2018-07-27T13:30:05.893Z,3.67
2018-07-27T13:32:33.499Z,5.17
2018-07-27T13:35:01.157Z,3.60
2018-07-27T13:39:58.737Z,4.13
2018-07-27T13:42:27.503Z,3.60
2018-07-27T13:44:55.192Z,4.53
2018-07-27T13:47:22.899Z,4.13
2018-07-27T13:49:50.498Z,4.33
2018-07-27T13:52:18.084Z,3.77
2018-07-27T13:54:45.579Z,5.93
2018-07-27T13:57:13.180Z,4.13
2018-07-27T13:59:40.741Z,5.20
2018-07-27T14:02:08.475Z,4.27
2018-07-27T14:04:36.054Z,3.87
2018-07-27T14:07:04.636Z,3.83
2018-07-27T14:09:32.216Z,4.90
2018-07-27T14:11:59.791Z,4.10
2018-07-27T14:14:27.343Z,3.50
2018-07-27T14:16:54.876Z,3.97
2018-07-27T14:19:22.746Z,4.17
2018-07-27T14:21:50.378Z,3.77
2018-07-27T14:24:18.055Z,3.97
2018-07-27T14:26:45.506Z,4.03
2018-07-27T14:29:13.120Z,4.70
2018-07-27T14:31:40.918Z,4.00
2018-07-27T14:34:08.682Z,4.70
2018-07-27T14:36:36.253Z,5.73
2018-07-27T14:39:06.850Z,3.87
2018-07-27T14:41:34.484Z,3.93
2018-07-27T14:44:02.444Z,3.97
2018-07-27T14:46:30.032Z,4.30
2018-07-27T14:48:57.588Z,3.50
2018-07-27T14:51:25.183Z,3.83
2018-07-27T14:53:52.694Z,4.30
2018-07-27T14:56:20.199Z,3.40
2018-07-27T14:58:47.768Z,4.00
2018-07-27T15:01:15.294Z,5.97
2018-07-27T15:03:42.726Z,5.33
2018-07-27T15:06:10.292Z,3.50
2018-07-27T15:08:37.770Z,4.27
2018-07-27T15:11:05.245Z,3.77
2018-07-27T15:13:32.821Z,3.47
2018-07-27T15:16:00.353Z,4.07
2018-07-27T15:18:27.838Z,4.17
2018-07-27T15:20:55.426Z,4.23
2018-07-27T15:23:23.018Z,4.50
2018-07-27T15:25:50.492Z,4.20
2018-07-27T15:28:18.014Z,4.23
2018-07-27T15:30:45.633Z,3.83
2018-07-27T15:33:13.193Z,4.77
2018-07-27T15:35:40.709Z,4.00
2018-07-27T15:38:08.251Z,5.03
2018-07-27T15:40:35.766Z,3.73
2018-07-27T15:43:03.340Z,5.03
2018-07-27T15:45:30.832Z,4.23
2018-07-27T15:47:58.366Z,5.17
2018-07-27T15:50:26.002Z,4.23
2018-07-27T15:52:53.545Z,4.20
2018-07-27T15:55:21.132Z,4.57
2018-07-27T15:57:48.687Z,3.57
2018-07-27T16:00:16.260Z,4.13
2018-07-27T16:02:43.857Z,3.57
2018-07-27T16:05:11.267Z,3.80
2018-07-27T16:07:38.762Z,4.07
2018-07-27T16:10:06.425Z,3.53
2018-07-27T16:12:34.252Z,4.03
2018-07-27T16:15:01.869Z,4.30
2018-07-27T16:17:29.420Z,3.70
